sensor_id;sensor_type;location;lat;lon;timestamp;temperature;humidity
75786;DHT22;64402;44.708;37.644;2022-10-23T00:01:30;10.56;73.20
75786;DHT22;64402;44.708;37.644;2022-10-23T00:04:06;10.60;73.20
75786;DHT22;64402;44.708;37.644;2022-10-23T00:06:33;10.69;74.37
75786;DHT22;64402;44.708;37.644;2022-10-23T00:09:00;10.80;73.57
75786;DHT22;64402;44.708;37.644;2022-10-23T00:11:28;10.90;72.74
75786;DHT22;64402;44.708;37.644;2022-10-23T00:13:57;10.67;73.40
75786;DHT22;64402;44.708;37.644;2022-10-23T00:16:24;10.71;73.26
75786;DHT22;64402;44.708;37.644;2022-10-23T00:18:50;10.73;73.47
75786;DHT22;64402;44.708;37.644;2022-10-23T00:21:16;10.81;73.87
75786;DHT22;64402;44.708;37.644;2022-10-23T00:23:44;10.93;73.74
75786;DHT22;64402;44.708;37.644;2022-10-23T00:26:11;10.84;75.30
75786;DHT22;64402;44.708;37.644;2022-10-23T00:28:41;10.73;74.87
75786;DHT22;64402;44.708;37.644;2022-10-23T00:31:08;10.79;74.96
75786;DHT22;64402;44.708;37.644;2022-10-23T00:33:35;10.86;74.80
75786;DHT22;64402;44.708;37.644;2022-10-23T00:36:09;10.96;75.62
75786;DHT22;64402;44.708;37.644;2022-10-23T00:38:36;11.02;75.55
75786;DHT22;64402;44.708;37.644;2022-10-23T00:41:04;11.12;74.80
75786;DHT22;64402;44.708;37.644;2022-10-23T00:43:32;11.22;74.06
75786;DHT22;64402;44.708;37.644;2022-10-23T00:45:59;11.33;74.51
75786;DHT22;64402;44.708;37.644;2022-10-23T00:48:26;11.45;73.35
75786;DHT22;64402;44.708;37.644;2022-10-23T00:50:53;11.51;74.31
75786;DHT22;64402;44.708;37.644;2022-10-23T00:53:20;11.54;75.22
75786;DHT22;64402;44.708;37.644;2022-10-23T00:55:49;11.53;75.45
75786;DHT22;64402;44.708;37.644;2022-10-23T00:58:18;11.58;75.17
75786;DHT22;64402;44.708;37.644;2022-10-23T01:00:53;11.63;75.07
75786;DHT22;64402;44.708;37.644;2022-10-23T01:03:22;11.68;74.98
75786;DHT22;64402;44.708;37.644;2022-10-23T01:05:53;11.74;75.91
75786;DHT22;64402;44.708;37.644;2022-10-23T01:11:29;11.81;75.38
75786;DHT22;64402;44.708;37.644;2022-10-23T01:19:19;11.85;76.09
75786;DHT22;64402;44.708;37.644;2022-10-23T01:22:03;11.89;76.03
75786;DHT22;64402;44.708;37.644;2022-10-23T01:29:55;12.10;74.75
75786;DHT22;64402;44.708;37.644;2022-10-23T01:35:15;12.27;73.63
75786;DHT22;64402;44.708;37.644;2022-10-23T01:37:44;12.35;73.12
75786;DHT22;64402;44.708;37.644;2022-10-23T01:40:36;12.36;74.02
75786;DHT22;64402;44.708;37.644;2022-10-23T01:43:11;12.37;74.35
75786;DHT22;64402;44.708;37.644;2022-10-23T01:45:47;12.42;72.58
75786;DHT22;64402;44.708;37.644;2022-10-23T01:48:19;12.44;74.10
75786;DHT22;64402;44.708;37.644;2022-10-23T01:50:48;12.51;73.29
75786;DHT22;64402;44.708;37.644;2022-10-23T01:53:17;12.61;72.53
75786;DHT22;64402;44.708;37.644;2022-10-23T01:55:44;12.71;72.80
75786;DHT22;64402;44.708;37.644;2022-10-23T01:58:12;12.92;72.13
75786;DHT22;64402;44.708;37.644;2022-10-23T02:00:41;13.06;71.56
75786;DHT22;64402;44.708;37.644;2022-10-23T02:03:10;13.17;71.21
75786;DHT22;64402;44.708;37.644;2022-10-23T02:05:38;13.22;70.89
75786;DHT22;64402;44.708;37.644;2022-10-23T02:08:05;13.32;70.25
75786;DHT22;64402;44.708;37.644;2022-10-23T02:13:12;13.62;68.76
75786;DHT22;64402;44.708;37.644;2022-10-23T02:15:58;13.76;67.99
75786;DHT22;64402;44.708;37.644;2022-10-23T02:19:04;13.89;67.58
75786;DHT22;64402;44.708;37.644;2022-10-23T02:21:52;13.96;67.00
75786;DHT22;64402;44.708;37.644;2022-10-23T02:24:35;14.03;66.91
75786;DHT22;64402;44.708;37.644;2022-10-23T02:27:11;14.10;66.70
75786;DHT22;64402;44.708;37.644;2022-10-23T02:29:54;14.17;66.51
75786;DHT22;64402;44.708;37.644;2022-10-23T02:32:23;14.23;66.02
75786;DHT22;64402;44.708;37.644;2022-10-23T02:34:51;14.27;65.74
75786;DHT22;64402;44.708;37.644;2022-10-23T02:37:17;14.32;65.82
75786;DHT22;64402;44.708;37.644;2022-10-23T02:39:44;14.37;65.52
75786;DHT22;64402;44.708;37.644;2022-10-23T02:42:14;14.42;65.66
75786;DHT22;64402;44.708;37.644;2022-10-23T02:47:47;14.49;65.84
75786;DHT22;64402;44.708;37.644;2022-10-23T02:50:21;14.54;65.80
75786;DHT22;64402;44.708;37.644;2022-10-23T02:53:05;14.56;65.41
75786;DHT22;64402;44.708;37.644;2022-10-23T02:55:57;14.58;65.23
75786;DHT22;64402;44.708;37.644;2022-10-23T02:58:31;14.63;65.44
75786;DHT22;64402;44.708;37.644;2022-10-23T03:01:07;14.65;65.61
75786;DHT22;64402;44.708;37.644;2022-10-23T03:03:38;14.68;65.61
75786;DHT22;64402;44.708;37.644;2022-10-23T03:06:06;14.70;65.46
75786;DHT22;64402;44.708;37.644;2022-10-23T03:09:03;14.71;65.56
75786;DHT22;64402;44.708;37.644;2022-10-23T03:11:29;14.73;65.76
75786;DHT22;64402;44.708;37.644;2022-10-23T03:13:55;14.75;65.96
75786;DHT22;64402;44.708;37.644;2022-10-23T03:16:21;14.79;65.85
75786;DHT22;64402;44.708;37.644;2022-10-23T03:18:47;14.80;65.89
75786;DHT22;64402;44.708;37.644;2022-10-23T03:21:14;14.80;66.04
75786;DHT22;64402;44.708;37.644;2022-10-23T03:23:40;14.82;66.32
75786;DHT22;64402;44.708;37.644;2022-10-23T03:26:06;14.83;66.07
75786;DHT22;64402;44.708;37.644;2022-10-23T03:28:32;14.83;66.32
75786;DHT22;64402;44.708;37.644;2022-10-23T03:31:00;14.83;66.47
75786;DHT22;64402;44.708;37.644;2022-10-23T03:33:28;14.86;66.19
75786;DHT22;64402;44.708;37.644;2022-10-23T03:35:54;14.85;66.34
75786;DHT22;64402;44.708;37.644;2022-10-23T03:38:20;14.84;66.23
75786;DHT22;64402;44.708;37.644;2022-10-23T03:40:46;14.85;66.17
75786;DHT22;64402;44.708;37.644;2022-10-23T03:43:13;14.85;66.52
75786;DHT22;64402;44.708;37.644;2022-10-23T03:45:39;14.86;66.62
75786;DHT22;64402;44.708;37.644;2022-10-23T03:48:06;14.89;66.67
75786;DHT22;64402;44.708;37.644;2022-10-23T03:50:33;14.94;66.56
75786;DHT22;64402;44.708;37.644;2022-10-23T03:52:59;14.98;66.59
75786;DHT22;64402;44.708;37.644;2022-10-23T03:55:25;15.02;66.23
75786;DHT22;64402;44.708;37.644;2022-10-23T03:57:53;15.06;66.11
75786;DHT22;64402;44.708;37.644;2022-10-23T04:00:19;15.10;66.17
75786;DHT22;64402;44.708;37.644;2022-10-23T04:02:45;15.12;66.46
75786;DHT22;64402;44.708;37.644;2022-10-23T04:05:12;15.16;66.49
75786;DHT22;64402;44.708;37.644;2022-10-23T04:07:38;15.19;66.70
75786;DHT22;64402;44.708;37.644;2022-10-23T04:10:04;15.22;66.46
75786;DHT22;64402;44.708;37.644;2022-10-23T04:12:31;15.25;66.46
75786;DHT22;64402;44.708;37.644;2022-10-23T04:14:57;15.29;66.58
75786;DHT22;64402;44.708;37.644;2022-10-23T04:17:23;15.32;66.29
75786;DHT22;64402;44.708;37.644;2022-10-23T04:19:49;15.39;66.34
75786;DHT22;64402;44.708;37.644;2022-10-23T04:22:15;15.42;66.13
75786;DHT22;64402;44.708;37.644;2022-10-23T04:24:41;15.47;65.98
75786;DHT22;64402;44.708;37.644;2022-10-23T04:27:12;15.54;66.11
75786;DHT22;64402;44.708;37.644;2022-10-23T04:29:38;15.58;65.55
75786;DHT22;64402;44.708;37.644;2022-10-23T04:32:06;15.60;65.48
75786;DHT22;64402;44.708;37.644;2022-10-23T04:34:32;15.65;65.44
75786;DHT22;64402;44.708;37.644;2022-10-23T04:36:58;15.67;65.57
75786;DHT22;64402;44.708;37.644;2022-10-23T04:39:24;15.68;65.49
75786;DHT22;64402;44.708;37.644;2022-10-23T04:41:50;15.71;65.39
75786;DHT22;64402;44.708;37.644;2022-10-23T04:44:16;15.72;65.54
75786;DHT22;64402;44.708;37.644;2022-10-23T04:46:42;15.74;65.24
75786;DHT22;64402;44.708;37.644;2022-10-23T04:49:09;15.75;64.47
75786;DHT22;64402;44.708;37.644;2022-10-23T04:51:36;15.77;62.79
75786;DHT22;64402;44.708;37.644;2022-10-23T04:54:03;15.80;61.20
75786;DHT22;64402;44.708;37.644;2022-10-23T04:56:29;15.83;61.45
75786;DHT22;64402;44.708;37.644;2022-10-23T04:58:55;15.87;61.17
75786;DHT22;64402;44.708;37.644;2022-10-23T05:01:21;15.88;60.82
75786;DHT22;64402;44.708;37.644;2022-10-23T05:03:47;15.91;60.58
75786;DHT22;64402;44.708;37.644;2022-10-23T05:06:13;15.97;60.53
75786;DHT22;64402;44.708;37.644;2022-10-23T05:08:39;16.01;60.18
75786;DHT22;64402;44.708;37.644;2022-10-23T05:11:05;16.04;60.03
75786;DHT22;64402;44.708;37.644;2022-10-23T05:13:32;16.12;60.19
75786;DHT22;64402;44.708;37.644;2022-10-23T05:15:58;16.19;60.72
75786;DHT22;64402;44.708;37.644;2022-10-23T05:21:04;16.31;60.48
75786;DHT22;64402;44.708;37.644;2022-10-23T05:23:32;16.37;60.57
75786;DHT22;64402;44.708;37.644;2022-10-23T05:26:00;16.41;60.80
75786;DHT22;64402;44.708;37.644;2022-10-23T05:28:28;16.45;60.80
75786;DHT22;64402;44.708;37.644;2022-10-23T05:30:56;16.51;60.71
75786;DHT22;64402;44.708;37.644;2022-10-23T05:33:24;16.52;60.65
75786;DHT22;64402;44.708;37.644;2022-10-23T05:35:50;16.56;61.25
75786;DHT22;64402;44.708;37.644;2022-10-23T05:38:16;16.60;61.48
75786;DHT22;64402;44.708;37.644;2022-10-23T05:40:42;16.61;61.51
75786;DHT22;64402;44.708;37.644;2022-10-23T05:43:09;16.62;62.21
75786;DHT22;64402;44.708;37.644;2022-10-23T05:45:35;16.63;62.18
75786;DHT22;64402;44.708;37.644;2022-10-23T05:48:01;16.64;61.50
75786;DHT22;64402;44.708;37.644;2022-10-23T05:50:27;16.69;61.75
75786;DHT22;64402;44.708;37.644;2022-10-23T05:52:53;16.72;61.84
75786;DHT22;64402;44.708;37.644;2022-10-23T05:55:19;16.77;62.10
75786;DHT22;64402;44.708;37.644;2022-10-23T05:57:45;16.82;61.88
75786;DHT22;64402;44.708;37.644;2022-10-23T06:00:12;16.86;61.73
75786;DHT22;64402;44.708;37.644;2022-10-23T06:02:39;16.88;61.34
75786;DHT22;64402;44.708;37.644;2022-10-23T06:05:05;16.87;61.23
75786;DHT22;64402;44.708;37.644;2022-10-23T06:07:32;16.86;61.21
75786;DHT22;64402;44.708;37.644;2022-10-23T06:09:58;16.89;61.45
75786;DHT22;64402;44.708;37.644;2022-10-23T06:12:24;16.94;61.81
75786;DHT22;64402;44.708;37.644;2022-10-23T06:14:50;17.00;61.87
75786;DHT22;64402;44.708;37.644;2022-10-23T06:17:17;17.05;62.08
75786;DHT22;64402;44.708;37.644;2022-10-23T06:19:43;17.17;61.43
75786;DHT22;64402;44.708;37.644;2022-10-23T06:22:10;17.24;61.18
75786;DHT22;64402;44.708;37.644;2022-10-23T06:24:37;17.29;60.78
75786;DHT22;64402;44.708;37.644;2022-10-23T06:27:03;17.30;61.21
75786;DHT22;64402;44.708;37.644;2022-10-23T06:29:30;17.33;61.57
75786;DHT22;64402;44.708;37.644;2022-10-23T06:31:56;17.37;61.72
75786;DHT22;64402;44.708;37.644;2022-10-23T06:34:22;17.43;61.60
75786;DHT22;64402;44.708;37.644;2022-10-23T06:36:48;17.45;61.58
75786;DHT22;64402;44.708;37.644;2022-10-23T06:39:14;17.50;60.76
75786;DHT22;64402;44.708;37.644;2022-10-23T06:41:41;17.51;59.90
75786;DHT22;64402;44.708;37.644;2022-10-23T06:44:09;17.55;59.66
75786;DHT22;64402;44.708;37.644;2022-10-23T06:46:36;17.66;58.22
75786;DHT22;64402;44.708;37.644;2022-10-23T06:49:02;17.68;58.32
75786;DHT22;64402;44.708;37.644;2022-10-23T06:51:28;17.69;58.99
75786;DHT22;64402;44.708;37.644;2022-10-23T06:53:55;17.79;58.38
75786;DHT22;64402;44.708;37.644;2022-10-23T06:56:22;17.85;58.48
75786;DHT22;64402;44.708;37.644;2022-10-23T06:58:50;17.91;57.60
75786;DHT22;64402;44.708;37.644;2022-10-23T07:01:16;17.97;56.36
75786;DHT22;64402;44.708;37.644;2022-10-23T07:03:42;18.14;56.11
75786;DHT22;64402;44.708;37.644;2022-10-23T07:06:10;18.22;56.23
75786;DHT22;64402;44.708;37.644;2022-10-23T07:08:37;18.27;56.88
75786;DHT22;64402;44.708;37.644;2022-10-23T07:11:06;18.30;56.85
75786;DHT22;64402;44.708;37.644;2022-10-23T07:13:33;18.47;56.44
75786;DHT22;64402;44.708;37.644;2022-10-23T07:16:09;18.89;55.14
75786;DHT22;64402;44.708;37.644;2022-10-23T07:18:35;18.92;55.07
75786;DHT22;64402;44.708;37.644;2022-10-23T07:21:02;18.78;54.78
75786;DHT22;64402;44.708;37.644;2022-10-23T07:23:29;18.62;55.50
75786;DHT22;64402;44.708;37.644;2022-10-23T07:25:55;18.50;56.16
75786;DHT22;64402;44.708;37.644;2022-10-23T07:28:21;18.29;57.03
75786;DHT22;64402;44.708;37.644;2022-10-23T07:30:57;18.09;58.18
75786;DHT22;64402;44.708;37.644;2022-10-23T07:33:24;17.95;58.42
75786;DHT22;64402;44.708;37.644;2022-10-23T07:35:50;17.85;59.02
75786;DHT22;64402;44.708;37.644;2022-10-23T07:38:16;17.83;59.67
75786;DHT22;64402;44.708;37.644;2022-10-23T07:40:43;17.82;59.99
75786;DHT22;64402;44.708;37.644;2022-10-23T07:43:09;17.81;59.92
75786;DHT22;64402;44.708;37.644;2022-10-23T07:45:36;17.76;60.28
75786;DHT22;64402;44.708;37.644;2022-10-23T07:48:03;17.78;60.46
75786;DHT22;64402;44.708;37.644;2022-10-23T07:50:40;17.74;60.97
75786;DHT22;64402;44.708;37.644;2022-10-23T07:53:06;17.74;61.12
75786;DHT22;64402;44.708;37.644;2022-10-23T07:55:32;17.77;61.42
75786;DHT22;64402;44.708;37.644;2022-10-23T07:57:58;17.77;61.73
75786;DHT22;64402;44.708;37.644;2022-10-23T08:00:24;17.78;61.61
75786;DHT22;64402;44.708;37.644;2022-10-23T08:02:50;17.76;61.76
75786;DHT22;64402;44.708;37.644;2022-10-23T08:05:18;17.81;61.97
75786;DHT22;64402;44.708;37.644;2022-10-23T08:07:45;17.82;61.15
75786;DHT22;64402;44.708;37.644;2022-10-23T08:10:11;17.89;61.06
75786;DHT22;64402;44.708;37.644;2022-10-23T08:12:37;17.89;61.00
75786;DHT22;64402;44.708;37.644;2022-10-23T08:15:03;17.96;60.73
75786;DHT22;64402;44.708;37.644;2022-10-23T08:17:30;18.00;59.48
75786;DHT22;64402;44.708;37.644;2022-10-23T08:19:56;18.05;59.67
75786;DHT22;64402;44.708;37.644;2022-10-23T08:22:22;18.02;60.15
75786;DHT22;64402;44.708;37.644;2022-10-23T08:24:48;18.09;60.15
75786;DHT22;64402;44.708;37.644;2022-10-23T08:27:14;18.14;60.06
75786;DHT22;64402;44.708;37.644;2022-10-23T08:29:41;18.09;59.52
75786;DHT22;64402;44.708;37.644;2022-10-23T08:32:07;18.15;58.67
75786;DHT22;64402;44.708;37.644;2022-10-23T08:34:33;18.19;58.84
75786;DHT22;64402;44.708;37.644;2022-10-23T08:37:02;18.32;58.70
75786;DHT22;64402;44.708;37.644;2022-10-23T08:39:28;18.67;58.25
75786;DHT22;64402;44.708;37.644;2022-10-23T08:41:54;18.81;56.88
75786;DHT22;64402;44.708;37.644;2022-10-23T08:44:29;18.85;57.03
75786;DHT22;64402;44.708;37.644;2022-10-23T08:47:10;18.99;56.80
75786;DHT22;64402;44.708;37.644;2022-10-23T08:52:14;18.95;56.58
75786;DHT22;64402;44.708;37.644;2022-10-23T08:54:55;18.95;56.70
75786;DHT22;64402;44.708;37.644;2022-10-23T08:57:26;18.91;57.34
75786;DHT22;64402;44.708;37.644;2022-10-23T09:00:13;18.80;57.76
75786;DHT22;64402;44.708;37.644;2022-10-23T09:02:46;18.67;58.35
75786;DHT22;64402;44.708;37.644;2022-10-23T09:05:35;18.56;59.38
75786;DHT22;64402;44.708;37.644;2022-10-23T09:08:23;18.53;60.35
75786;DHT22;64402;44.708;37.644;2022-10-23T09:11:03;18.55;61.81
75786;DHT22;64402;44.708;37.644;2022-10-23T09:18:52;18.37;61.79
75786;DHT22;64402;44.708;37.644;2022-10-23T09:21:19;18.44;61.37
75786;DHT22;64402;44.708;37.644;2022-10-23T09:23:46;18.58;60.22
75786;DHT22;64402;44.708;37.644;2022-10-23T09:26:17;18.78;58.91
75786;DHT22;64402;44.708;37.644;2022-10-23T09:28:49;18.96;58.58
75786;DHT22;64402;44.708;37.644;2022-10-23T09:31:17;19.17;58.63
75786;DHT22;64402;44.708;37.644;2022-10-23T09:33:54;19.18;56.33
75786;DHT22;64402;44.708;37.644;2022-10-23T09:36:21;19.10;56.74
75786;DHT22;64402;44.708;37.644;2022-10-23T09:38:51;19.02;57.10
75786;DHT22;64402;44.708;37.644;2022-10-23T09:44:26;19.02;56.76
75786;DHT22;64402;44.708;37.644;2022-10-23T09:47:15;19.17;56.64
75786;DHT22;64402;44.708;37.644;2022-10-23T09:49:51;19.12;57.00
75786;DHT22;64402;44.708;37.644;2022-10-23T09:52:35;19.28;55.12
75786;DHT22;64402;44.708;37.644;2022-10-23T09:55:19;19.58;53.90
75786;DHT22;64402;44.708;37.644;2022-10-23T09:57:45;19.59;53.33
75786;DHT22;64402;44.708;37.644;2022-10-23T10:00:17;19.48;54.13
75786;DHT22;64402;44.708;37.644;2022-10-23T10:03:01;19.46;55.21
75786;DHT22;64402;44.708;37.644;2022-10-23T10:05:33;19.63;54.87
75786;DHT22;64402;44.708;37.644;2022-10-23T10:10:35;20.20;51.25
75786;DHT22;64402;44.708;37.644;2022-10-23T10:18:39;19.65;52.14
75786;DHT22;64402;44.708;37.644;2022-10-23T10:21:27;19.59;53.14
75786;DHT22;64402;44.708;37.644;2022-10-23T10:24:05;19.42;53.39
75786;DHT22;64402;44.708;37.644;2022-10-23T10:27:03;19.32;53.81
75786;DHT22;64402;44.708;37.644;2022-10-23T10:29:58;19.24;54.74
75786;DHT22;64402;44.708;37.644;2022-10-23T10:32:56;19.32;55.27
75786;DHT22;64402;44.708;37.644;2022-10-23T10:35:47;19.32;56.00
75786;DHT22;64402;44.708;37.644;2022-10-23T10:38:35;19.31;56.13
75786;DHT22;64402;44.708;37.644;2022-10-23T10:41:48;19.21;56.22
75786;DHT22;64402;44.708;37.644;2022-10-23T10:49:54;18.69;58.53
75786;DHT22;64402;44.708;37.644;2022-10-23T10:57:41;18.64;59.32
75786;DHT22;64402;44.708;37.644;2022-10-23T11:00:17;18.52;60.60
75786;DHT22;64402;44.708;37.644;2022-10-23T11:02:49;18.51;59.92
75786;DHT22;64402;44.708;37.644;2022-10-23T11:05:20;18.48;60.89
75786;DHT22;64402;44.708;37.644;2022-10-23T11:07:54;18.47;60.95
75786;DHT22;64402;44.708;37.644;2022-10-23T11:10:21;18.34;60.76
75786;DHT22;64402;44.708;37.644;2022-10-23T11:12:48;18.23;61.86
75786;DHT22;64402;44.708;37.644;2022-10-23T11:15:34;18.13;62.92
75786;DHT22;64402;44.708;37.644;2022-10-23T11:18:10;18.10;62.58
75786;DHT22;64402;44.708;37.644;2022-10-23T11:20:44;18.02;62.57
75786;DHT22;64402;44.708;37.644;2022-10-23T11:38:32;17.80;63.59
75786;DHT22;64402;44.708;37.644;2022-10-23T11:41:05;17.78;63.77
75786;DHT22;64402;44.708;37.644;2022-10-23T11:43:48;17.83;64.23
75786;DHT22;64402;44.708;37.644;2022-10-23T11:48:56;17.84;65.11
75786;DHT22;64402;44.708;37.644;2022-10-23T11:57:12;17.76;66.94
75786;DHT22;64402;44.708;37.644;2022-10-23T12:02:35;17.70;66.51
75786;DHT22;64402;44.708;37.644;2022-10-23T12:05:27;17.67;66.50
75786;DHT22;64402;44.708;37.644;2022-10-23T12:07:58;17.63;65.86
75786;DHT22;64402;44.708;37.644;2022-10-23T12:10:43;17.65;66.23
75786;DHT22;64402;44.708;37.644;2022-10-23T12:15:54;17.68;66.24
75786;DHT22;64402;44.708;37.644;2022-10-23T12:18:21;17.74;65.70
75786;DHT22;64402;44.708;37.644;2022-10-23T12:26:04;17.61;66.00
75786;DHT22;64402;44.708;37.644;2022-10-23T12:28:56;17.65;65.63
75786;DHT22;64402;44.708;37.644;2022-10-23T12:31:49;17.64;65.06
75786;DHT22;64402;44.708;37.644;2022-10-23T12:39:39;17.66;65.37
75786;DHT22;64402;44.708;37.644;2022-10-23T12:42:13;17.64;65.59
75786;DHT22;64402;44.708;37.644;2022-10-23T12:44:42;17.64;64.69
75786;DHT22;64402;44.708;37.644;2022-10-23T12:47:14;17.61;64.14
75786;DHT22;64402;44.708;37.644;2022-10-23T12:49:48;17.59;64.37
75786;DHT22;64402;44.708;37.644;2022-10-23T12:52:17;17.59;64.89
75786;DHT22;64402;44.708;37.644;2022-10-23T12:54:44;17.55;65.21
75786;DHT22;64402;44.708;37.644;2022-10-23T12:59:46;17.56;64.26
75786;DHT22;64402;44.708;37.644;2022-10-23T13:04:45;17.53;62.92
75786;DHT22;64402;44.708;37.644;2022-10-23T13:07:12;17.53;63.29
75786;DHT22;64402;44.708;37.644;2022-10-23T13:09:40;17.49;63.74
75786;DHT22;64402;44.708;37.644;2022-10-23T13:12:08;17.51;64.12
75786;DHT22;64402;44.708;37.644;2022-10-23T13:14:41;17.50;64.44
75786;DHT22;64402;44.708;37.644;2022-10-23T13:17:10;17.49;64.39
75786;DHT22;64402;44.708;37.644;2022-10-23T13:19:36;17.50;64.21
75786;DHT22;64402;44.708;37.644;2022-10-23T13:22:15;17.47;64.43
75786;DHT22;64402;44.708;37.644;2022-10-23T13:24:42;17.49;64.49
75786;DHT22;64402;44.708;37.644;2022-10-23T13:27:31;17.52;63.55
75786;DHT22;64402;44.708;37.644;2022-10-23T13:29:58;17.49;63.11
75786;DHT22;64402;44.708;37.644;2022-10-23T13:32:27;17.47;63.03
75786;DHT22;64402;44.708;37.644;2022-10-23T13:34:55;17.46;63.29
75786;DHT22;64402;44.708;37.644;2022-10-23T13:37:25;17.46;63.18
75786;DHT22;64402;44.708;37.644;2022-10-23T13:42:55;17.39;62.67
75786;DHT22;64402;44.708;37.644;2022-10-23T13:45:24;17.39;62.98
75786;DHT22;64402;44.708;37.644;2022-10-23T13:47:50;17.36;63.56
75786;DHT22;64402;44.708;37.644;2022-10-23T13:50:17;17.35;63.40
75786;DHT22;64402;44.708;37.644;2022-10-23T13:52:45;17.32;64.00
75786;DHT22;64402;44.708;37.644;2022-10-23T13:55:23;17.32;65.27
75786;DHT22;64402;44.708;37.644;2022-10-23T13:57:50;17.30;65.59
75786;DHT22;64402;44.708;37.644;2022-10-23T14:00:16;17.31;66.36
75786;DHT22;64402;44.708;37.644;2022-10-23T14:02:42;17.29;66.13
75786;DHT22;64402;44.708;37.644;2022-10-23T14:05:09;17.28;66.76
75786;DHT22;64402;44.708;37.644;2022-10-23T14:07:35;17.28;67.07
75786;DHT22;64402;44.708;37.644;2022-10-23T14:10:02;17.30;67.23
75786;DHT22;64402;44.708;37.644;2022-10-23T14:12:29;17.30;67.97
75786;DHT22;64402;44.708;37.644;2022-10-23T14:14:55;17.30;68.51
75786;DHT22;64402;44.708;37.644;2022-10-23T14:17:22;17.26;69.37
75786;DHT22;64402;44.708;37.644;2022-10-23T14:19:48;17.29;69.43
75786;DHT22;64402;44.708;37.644;2022-10-23T14:22:14;17.29;69.55
75786;DHT22;64402;44.708;37.644;2022-10-23T14:24:42;17.28;69.20
75786;DHT22;64402;44.708;37.644;2022-10-23T14:27:08;17.24;69.09
75786;DHT22;64402;44.708;37.644;2022-10-23T14:29:35;17.21;68.56
75786;DHT22;64402;44.708;37.644;2022-10-23T14:32:01;17.17;69.65
75786;DHT22;64402;44.708;37.644;2022-10-23T14:34:30;17.14;69.06
75786;DHT22;64402;44.708;37.644;2022-10-23T14:36:56;17.11;69.29
75786;DHT22;64402;44.708;37.644;2022-10-23T14:39:22;17.13;70.12
75786;DHT22;64402;44.708;37.644;2022-10-23T14:41:48;17.15;70.32
75786;DHT22;64402;44.708;37.644;2022-10-23T14:44:14;17.11;70.94
75786;DHT22;64402;44.708;37.644;2022-10-23T14:46:41;17.11;71.80
75786;DHT22;64402;44.708;37.644;2022-10-23T14:49:07;17.07;72.14
75786;DHT22;64402;44.708;37.644;2022-10-23T14:51:34;17.08;72.57
75786;DHT22;64402;44.708;37.644;2022-10-23T14:54:02;17.07;72.34
75786;DHT22;64402;44.708;37.644;2022-10-23T14:56:30;17.10;72.65
75786;DHT22;64402;44.708;37.644;2022-10-23T14:58:57;17.09;72.45
75786;DHT22;64402;44.708;37.644;2022-10-23T15:01:28;17.10;72.58
75786;DHT22;64402;44.708;37.644;2022-10-23T15:03:55;17.10;72.90
75786;DHT22;64402;44.708;37.644;2022-10-23T15:06:22;17.08;73.32
75786;DHT22;64402;44.708;37.644;2022-10-23T15:08:51;17.06;73.49
75786;DHT22;64402;44.708;37.644;2022-10-23T15:11:19;16.99;73.65
75786;DHT22;64402;44.708;37.644;2022-10-23T15:13:45;16.96;73.47
75786;DHT22;64402;44.708;37.644;2022-10-23T15:16:11;16.96;73.48
75786;DHT22;64402;44.708;37.644;2022-10-23T15:18:39;16.93;74.06
75786;DHT22;64402;44.708;37.644;2022-10-23T15:21:07;16.92;74.12
75786;DHT22;64402;44.708;37.644;2022-10-23T15:23:35;16.92;73.81
75786;DHT22;64402;44.708;37.644;2022-10-23T15:26:04;16.95;73.74
75786;DHT22;64402;44.708;37.644;2022-10-23T15:28:32;16.99;73.33
75786;DHT22;64402;44.708;37.644;2022-10-23T15:30:58;16.95;72.58
75786;DHT22;64402;44.708;37.644;2022-10-23T15:33:25;16.98;72.73
75786;DHT22;64402;44.708;37.644;2022-10-23T15:35:52;16.99;72.77
75786;DHT22;64402;44.708;37.644;2022-10-23T15:38:19;16.96;72.11
75786;DHT22;64402;44.708;37.644;2022-10-23T15:40:45;16.95;72.22
75786;DHT22;64402;44.708;37.644;2022-10-23T15:43:12;16.92;72.29
75786;DHT22;64402;44.708;37.644;2022-10-23T15:45:39;16.93;71.68
75786;DHT22;64402;44.708;37.644;2022-10-23T15:48:06;16.93;71.76
75786;DHT22;64402;44.708;37.644;2022-10-23T15:50:33;16.91;70.87
75786;DHT22;64402;44.708;37.644;2022-10-23T15:52:59;16.89;70.98
75786;DHT22;64402;44.708;37.644;2022-10-23T15:55:25;16.87;71.68
75786;DHT22;64402;44.708;37.644;2022-10-23T15:57:53;16.88;70.97
75786;DHT22;64402;44.708;37.644;2022-10-23T16:00:19;16.86;71.58
75786;DHT22;64402;44.708;37.644;2022-10-23T16:02:46;16.85;72.85
75786;DHT22;64402;44.708;37.644;2022-10-23T16:05:12;16.85;72.83
75786;DHT22;64402;44.708;37.644;2022-10-23T16:07:39;16.85;73.04
75786;DHT22;64402;44.708;37.644;2022-10-23T16:10:05;16.85;72.71
75786;DHT22;64402;44.708;37.644;2022-10-23T16:12:34;16.87;72.59
75786;DHT22;64402;44.708;37.644;2022-10-23T16:15:00;16.87;72.35
75786;DHT22;64402;44.708;37.644;2022-10-23T16:17:26;16.91;72.09
75786;DHT22;64402;44.708;37.644;2022-10-23T16:19:52;16.93;72.15
75786;DHT22;64402;44.708;37.644;2022-10-23T16:22:19;16.91;71.70
75786;DHT22;64402;44.708;37.644;2022-10-23T16:24:45;16.90;72.01
75786;DHT22;64402;44.708;37.644;2022-10-23T16:27:11;16.89;71.71
75786;DHT22;64402;44.708;37.644;2022-10-23T16:29:38;16.87;71.96
75786;DHT22;64402;44.708;37.644;2022-10-23T16:32:04;16.89;72.22
75786;DHT22;64402;44.708;37.644;2022-10-23T16:34:31;16.90;72.08
75786;DHT22;64402;44.708;37.644;2022-10-23T16:36:57;16.89;72.40
75786;DHT22;64402;44.708;37.644;2022-10-23T16:39:23;16.91;72.45
75786;DHT22;64402;44.708;37.644;2022-10-23T16:41:50;16.91;72.77
75786;DHT22;64402;44.708;37.644;2022-10-23T16:44:16;16.91;72.94
75786;DHT22;64402;44.708;37.644;2022-10-23T16:46:43;16.90;73.28
75786;DHT22;64402;44.708;37.644;2022-10-23T16:49:09;16.90;72.50
75786;DHT22;64402;44.708;37.644;2022-10-23T16:51:35;16.91;72.06
75786;DHT22;64402;44.708;37.644;2022-10-23T16:54:01;16.91;71.65
75786;DHT22;64402;44.708;37.644;2022-10-23T16:56:28;16.92;71.64
75786;DHT22;64402;44.708;37.644;2022-10-23T16:58:55;16.90;70.64
75786;DHT22;64402;44.708;37.644;2022-10-23T17:01:25;16.90;69.68
75786;DHT22;64402;44.708;37.644;2022-10-23T17:03:52;16.90;68.62
75786;DHT22;64402;44.708;37.644;2022-10-23T17:06:21;16.87;68.34
75786;DHT22;64402;44.708;37.644;2022-10-23T17:08:48;16.85;68.06
75786;DHT22;64402;44.708;37.644;2022-10-23T17:11:21;16.84;67.29
75786;DHT22;64402;44.708;37.644;2022-10-23T17:13:54;16.82;67.61